createdAt,value
2019-02-26T00:01:50.468Z,3.00
2019-02-26T00:04:20.811Z,3.00
2019-02-26T00:06:51.415Z,3.00
2019-02-26T00:09:24.458Z,3.00
2019-02-26T00:11:54.044Z,3.00
2019-02-26T00:14:24.879Z,3.00
2019-02-26T00:16:55.776Z,3.00
2019-02-26T00:19:25.618Z,3.00
2019-02-26T00:21:55.517Z,2.90
2019-02-26T00:24:30.316Z,2.90
2019-02-26T00:26:58.609Z,2.90
2019-02-26T00:29:30.280Z,2.90
2019-02-26T00:32:00.927Z,2.90
2019-02-26T00:34:32.339Z,2.90
2019-02-26T00:37:04.053Z,2.90
2019-02-26T00:39:33.917Z,2.80
2019-02-26T00:42:05.385Z,2.80
2019-02-26T00:44:37.277Z,2.80
2019-02-26T00:47:09.007Z,2.80
2019-02-26T00:49:39.698Z,2.70
2019-02-26T00:52:11.070Z,2.70
2019-02-26T00:54:41.289Z,2.70
2019-02-26T00:57:12.269Z,2.70
2019-02-26T00:59:44.048Z,2.70
2019-02-26T01:02:14.241Z,2.60
2019-02-26T01:04:46.255Z,2.60
2019-02-26T01:07:16.354Z,2.60
2019-02-26T01:09:47.881Z,2.50
2019-02-26T01:12:18.340Z,2.50
2019-02-26T01:14:48.652Z,2.50
2019-02-26T01:17:20.055Z,2.50
2019-02-26T01:19:49.829Z,2.50
2019-02-26T01:22:19.736Z,2.40
2019-02-26T01:24:51.958Z,2.50
2019-02-26T01:27:21.866Z,2.40
2019-02-26T01:29:53.521Z,2.40
2019-02-26T01:32:24.932Z,2.40
2019-02-26T01:34:54.841Z,2.40
2019-02-26T01:37:27.721Z,2.30
2019-02-26T01:39:56.926Z,2.30
2019-02-26T01:42:27.540Z,2.30
2019-02-26T01:44:58.210Z,2.30
2019-02-26T01:47:28.522Z,2.30
2019-02-26T01:49:59.413Z,2.20
2019-02-26T01:52:29.475Z,2.20
2019-02-26T01:55:00.613Z,2.20
2019-02-26T01:57:30.760Z,2.20
2019-02-26T02:00:01.354Z,2.20
2019-02-26T02:02:32.798Z,2.20
2019-02-26T02:05:04.841Z,2.20
2019-02-26T02:07:34.453Z,2.10
2019-02-26T02:10:07.341Z,2.10
2019-02-26T02:12:39.119Z,2.10
2019-02-26T02:15:17.913Z,2.10
2019-02-26T02:17:46.729Z,2.10
2019-02-26T02:20:20.835Z,2.10
2019-02-26T02:22:48.544Z,2.10
2019-02-26T02:25:18.433Z,2.00
2019-02-26T02:27:51.805Z,2.00
2019-02-26T02:30:26.744Z,2.00
2019-02-26T02:32:55.079Z,2.00
2019-02-26T02:35:22.895Z,2.00
2019-02-26T02:37:53.544Z,2.00
2019-02-26T02:40:24.402Z,2.00
2019-02-26T02:42:54.388Z,2.00
2019-02-26T02:45:24.215Z,2.00
2019-02-26T02:47:57.856Z,2.00
2019-02-26T02:50:25.582Z,2.00
2019-02-26T02:52:56.880Z,2.00
2019-02-26T02:55:26.923Z,2.00
2019-02-26T02:57:59.987Z,2.00
2019-02-26T03:00:32.177Z,2.00
2019-02-26T03:03:00.977Z,2.00
2019-02-26T03:05:34.371Z,2.00
2019-02-26T03:08:03.441Z,2.00
2019-02-26T03:10:34.582Z,2.00
2019-02-26T03:13:04.807Z,2.00
2019-02-26T03:15:35.858Z,2.00
2019-02-26T03:18:07.163Z,1.90
2019-02-26T03:20:40.280Z,1.90
2019-02-26T03:23:11.894Z,1.90
2019-02-26T03:25:41.455Z,1.90
2019-02-26T03:28:12.157Z,1.90
2019-02-26T03:30:44.318Z,1.90
2019-02-26T03:33:13.493Z,1.90
2019-02-26T03:35:43.278Z,1.90
2019-02-26T03:38:15.026Z,1.80
2019-02-26T03:40:44.550Z,1.80
2019-02-26T03:43:16.286Z,1.80
2019-02-26T03:45:48.070Z,1.80
2019-02-26T03:48:20.284Z,1.80
2019-02-26T03:50:48.973Z,1.80
2019-02-26T03:53:19.660Z,1.80
2019-02-26T03:55:49.640Z,1.80
2019-02-26T03:58:19.624Z,1.70
2019-02-26T04:00:49.659Z,1.70
2019-02-26T04:03:19.549Z,1.70
2019-02-26T04:05:49.382Z,1.70
2019-02-26T04:08:21.875Z,1.70
2019-02-26T04:10:53.654Z,1.70
2019-02-26T04:13:22.496Z,1.70
2019-02-26T04:15:54.112Z,1.70
2019-02-26T04:18:24.113Z,1.70
2019-02-26T04:20:53.873Z,1.70
2019-02-26T04:23:23.774Z,1.70
2019-02-26T04:26:01.748Z,1.70
2019-02-26T04:28:40.370Z,1.70
2019-02-26T04:31:23.689Z,1.70
2019-02-26T04:34:11.762Z,1.60
2019-02-26T04:36:56.401Z,1.60
2019-02-26T04:39:29.295Z,1.60
2019-02-26T04:42:17.578Z,1.60
2019-02-26T04:45:09.045Z,1.60
2019-02-26T04:47:56.941Z,1.50
2019-02-26T04:50:28.693Z,1.50
2019-02-26T04:52:59.766Z,1.50
2019-02-26T04:55:29.813Z,1.50
2019-02-26T04:57:59.623Z,1.50
2019-02-26T05:00:32.497Z,1.40
2019-02-26T05:03:01.338Z,1.40
2019-02-26T05:05:34.164Z,1.40
2019-02-26T05:08:04.211Z,1.40
2019-02-26T05:10:35.219Z,1.30
2019-02-26T05:13:07.349Z,1.40
2019-02-26T05:15:36.845Z,1.40
2019-02-26T05:18:06.673Z,1.30
2019-02-26T05:20:37.424Z,1.30
2019-02-26T05:23:07.939Z,1.40
2019-02-26T05:25:39.661Z,1.30
2019-02-26T05:28:14.077Z,1.30
2019-02-26T05:30:43.861Z,1.30
2019-02-26T05:33:13.995Z,1.20
2019-02-26T05:35:46.256Z,1.30
2019-02-26T05:38:15.827Z,1.20
2019-02-26T05:40:47.618Z,1.20
2019-02-26T05:43:17.316Z,1.20
2019-02-26T05:45:48.560Z,1.20
2019-02-26T05:48:20.588Z,1.20
2019-02-26T05:50:50.141Z,1.20
2019-02-26T05:53:19.953Z,1.10
2019-02-26T05:55:51.206Z,1.10
2019-02-26T05:58:21.588Z,1.10
2019-02-26T06:00:51.475Z,1.10
2019-02-26T06:03:21.287Z,1.10
2019-02-26T06:05:51.995Z,1.10
2019-02-26T06:08:25.993Z,1.10
2019-02-26T06:10:55.844Z,1.10
2019-02-26T06:13:25.682Z,1.10
2019-02-26T06:15:58.606Z,1.10
2019-02-26T06:18:27.400Z,1.10
2019-02-26T06:20:58.639Z,1.10
2019-02-26T06:23:33.455Z,1.10
2019-02-26T06:26:02.307Z,1.20
2019-02-26T06:28:35.498Z,1.20
2019-02-26T06:31:03.815Z,1.20
2019-02-26T06:33:35.987Z,1.30
2019-02-26T06:36:06.457Z,1.30
2019-02-26T06:38:36.307Z,1.50
2019-02-26T06:41:06.972Z,1.50
2019-02-26T06:43:39.636Z,1.60
2019-02-26T06:46:11.163Z,1.70
2019-02-26T06:48:39.971Z,1.80
2019-02-26T06:51:09.784Z,1.90
2019-02-26T06:53:40.117Z,2.00
2019-02-26T06:56:11.633Z,2.10
2019-02-26T06:58:43.243Z,2.30
2019-02-26T07:01:14.396Z,2.40
2019-02-26T07:03:44.805Z,2.60
2019-02-26T07:06:18.442Z,2.80
2019-02-26T07:08:47.194Z,3.00
2019-02-26T07:11:17.784Z,3.30
2019-02-26T07:13:47.752Z,3.70
2019-02-26T07:16:18.039Z,4.10
2019-02-26T07:18:49.233Z,4.60
2019-02-26T07:21:19.157Z,5.10
2019-02-26T07:23:49.110Z,5.60
2019-02-26T07:26:20.731Z,6.20
2019-02-26T07:28:51.060Z,6.70
2019-02-26T07:31:24.185Z,7.40
2019-02-26T07:33:55.771Z,8.00
2019-02-26T07:36:27.612Z,8.50
2019-02-26T07:38:56.684Z,8.90
2019-02-26T07:41:29.826Z,9.20
2019-02-26T07:44:00.028Z,9.20
2019-02-26T07:46:30.154Z,9.30
2019-02-26T07:49:01.907Z,9.40
2019-02-26T07:51:33.363Z,9.70
2019-02-26T07:54:03.022Z,10.10
2019-02-26T07:56:32.924Z,10.40
2019-02-26T07:59:06.713Z,10.80
2019-02-26T08:01:35.440Z,11.30
2019-02-26T08:04:06.272Z,11.70
2019-02-26T08:06:38.459Z,12.10
2019-02-26T08:09:11.556Z,12.50
2019-02-26T08:11:41.359Z,12.90
2019-02-26T08:14:13.756Z,13.20
2019-02-26T08:16:43.448Z,13.50
2019-02-26T08:19:13.346Z,13.80
2019-02-26T08:21:43.271Z,14.10
2019-02-26T08:24:14.829Z,14.40
2019-02-26T08:26:45.236Z,14.60
2019-02-26T08:29:16.274Z,14.90
2019-02-26T08:31:47.477Z,15.20
2019-02-26T08:34:18.729Z,15.50
2019-02-26T08:36:48.555Z,15.80
2019-02-26T08:39:18.373Z,16.10
2019-02-26T08:42:08.197Z,16.30
2019-02-26T08:44:38.064Z,16.50
2019-02-26T08:47:11.124Z,16.60
2019-02-26T08:49:40.710Z,16.60
2019-02-26T08:52:11.493Z,16.60
2019-02-26T08:54:41.445Z,16.60
2019-02-26T08:57:12.238Z,16.60
2019-02-26T08:59:44.507Z,16.60
2019-02-26T09:02:13.754Z,16.60
2019-02-26T09:04:45.062Z,16.50
2019-02-26T09:07:16.435Z,16.40
2019-02-26T09:09:48.127Z,16.30
2019-02-26T09:12:19.833Z,16.10
2019-02-26T09:14:50.729Z,15.80
2019-02-26T09:17:23.114Z,15.50
2019-02-26T09:19:54.661Z,15.20
2019-02-26T09:22:26.608Z,14.90
2019-02-26T09:24:57.006Z,14.60
2019-02-26T09:27:29.468Z,14.30
2019-02-26T09:29:59.280Z,13.90
2019-02-26T09:32:29.293Z,13.60
2019-02-26T09:35:01.485Z,13.40
2019-02-26T09:37:30.833Z,13.10
2019-02-26T09:40:02.807Z,12.90
2019-02-26T09:42:33.325Z,12.70
2019-02-26T09:45:03.306Z,12.60
2019-02-26T09:47:33.532Z,12.50
2019-02-26T09:50:06.382Z,12.40
2019-02-26T09:52:36.411Z,12.30
2019-02-26T09:55:12.126Z,12.30
2019-02-26T09:57:42.042Z,12.30
2019-02-26T10:00:22.874Z,12.30
2019-02-26T10:02:52.099Z,12.30
2019-02-26T10:05:22.661Z,12.30
2019-02-26T10:07:54.941Z,12.30
2019-02-26T10:10:27.635Z,12.40
2019-02-26T10:12:57.283Z,12.40
2019-02-26T10:15:27.309Z,12.50
2019-02-26T10:17:59.585Z,12.50
2019-02-26T10:20:31.653Z,12.60
2019-02-26T10:23:03.221Z,12.60
2019-02-26T10:25:34.762Z,12.70
2019-02-26T10:28:08.780Z,12.80
2019-02-26T10:30:38.300Z,12.90
2019-02-26T10:33:07.692Z,13.00
2019-02-26T10:35:39.692Z,13.10
2019-02-26T10:38:11.530Z,13.20
2019-02-26T10:40:50.624Z,13.30
2019-02-26T10:43:12.143Z,13.40
2019-02-26T10:45:44.851Z,13.60
2019-02-26T10:48:15.626Z,13.70
2019-02-26T10:50:48.932Z,13.80
2019-02-26T10:53:22.376Z,14.00
2019-02-26T10:55:49.233Z,14.10
2019-02-26T10:58:19.073Z,14.20
2019-02-26T11:00:53.173Z,14.30
2019-02-26T11:03:22.221Z,14.40
2019-02-26T11:05:52.468Z,14.50
2019-02-26T11:08:24.785Z,14.50
2019-02-26T11:10:53.966Z,14.60
2019-02-26T11:13:25.560Z,14.60
2019-02-26T11:15:57.396Z,14.70
2019-02-26T11:18:27.499Z,14.80
2019-02-26T11:20:59.233Z,14.90
2019-02-26T11:23:31.154Z,15.00
2019-02-26T11:26:01.216Z,15.10
2019-02-26T11:28:32.923Z,15.10
2019-02-26T11:31:02.859Z,15.20
2019-02-26T11:33:32.672Z,15.30
2019-02-26T11:36:03.046Z,15.40
2019-02-26T11:38:36.897Z,15.50
2019-02-26T11:41:05.837Z,15.60
2019-02-26T11:43:35.866Z,15.60
2019-02-26T11:46:06.984Z,15.70
2019-02-26T11:48:37.494Z,15.80
2019-02-26T11:51:07.350Z,15.90
2019-02-26T11:53:37.175Z,15.90
2019-02-26T11:56:07.004Z,16.00
2019-02-26T11:58:36.941Z,16.10
2019-02-26T12:01:08.003Z,16.20
2019-02-26T12:03:38.916Z,16.20
2019-02-26T12:06:09.398Z,16.30
2019-02-26T12:08:40.589Z,16.50
2019-02-26T12:11:13.908Z,16.60
2019-02-26T12:13:44.505Z,16.70
2019-02-26T12:16:14.036Z,16.80
2019-02-26T12:18:45.014Z,16.90
2019-02-26T12:21:15.535Z,17.00
2019-02-26T12:23:46.789Z,17.10
2019-02-26T12:26:19.170Z,17.20
2019-02-26T12:28:48.989Z,17.30
2019-02-26T12:31:19.028Z,17.30
2019-02-26T12:33:48.860Z,17.40
2019-02-26T12:36:18.706Z,17.40
2019-02-26T12:38:50.239Z,17.50
2019-02-26T12:41:21.062Z,17.50
2019-02-26T12:43:51.169Z,17.50
2019-02-26T12:46:21.717Z,17.50
2019-02-26T12:48:52.827Z,17.50
2019-02-26T12:51:25.233Z,17.50
2019-02-26T12:53:54.197Z,17.60
2019-02-26T12:56:24.837Z,17.60
2019-02-26T12:58:55.598Z,17.60
2019-02-26T13:01:25.421Z,17.60
2019-02-26T13:03:55.567Z,17.70
2019-02-26T13:06:26.585Z,17.80
2019-02-26T13:08:56.509Z,17.80
2019-02-26T13:11:26.441Z,17.90
2019-02-26T13:13:56.446Z,17.90
2019-02-26T13:16:26.257Z,18.00
2019-02-26T13:19:00.647Z,18.10
2019-02-26T13:21:28.853Z,18.10
2019-02-26T13:24:05.204Z,18.10
2019-02-26T13:26:34.816Z,18.20
2019-02-26T13:29:01.957Z,18.20
2019-02-26T13:31:35.665Z,18.20
2019-02-26T13:34:03.472Z,18.20
2019-02-26T13:39:06.909Z,18.20
2019-02-26T13:41:39.162Z,18.20
2019-02-26T13:44:09.320Z,18.20
2019-02-26T13:46:39.347Z,18.20
2019-02-26T13:49:09.212Z,18.20
2019-02-26T13:51:39.210Z,18.20
2019-02-26T13:54:09.121Z,18.20
2019-02-26T13:56:39.026Z,18.20
2019-02-26T13:59:09.119Z,18.20
2019-02-26T14:01:39.014Z,18.20
2019-02-26T14:04:09.029Z,18.20
2019-02-26T14:06:39.086Z,18.20
2019-02-26T14:09:09.381Z,18.30
2019-02-26T14:11:40.366Z,18.30
2019-02-26T14:14:10.221Z,18.30
2019-02-26T14:16:40.030Z,18.20
2019-02-26T14:19:09.954Z,18.30
2019-02-26T14:21:39.877Z,18.30
2019-02-26T14:24:09.689Z,18.30
2019-02-26T14:26:39.540Z,18.30
2019-02-26T14:29:09.558Z,18.20
2019-02-26T14:31:40.381Z,18.20
2019-02-26T14:34:10.226Z,18.20
2019-02-26T14:36:40.164Z,18.20
2019-02-26T14:39:10.926Z,18.20
2019-02-26T14:41:40.750Z,18.30
2019-02-26T14:44:10.726Z,18.30
2019-02-26T14:46:40.681Z,18.30
2019-02-26T14:49:10.497Z,18.30
2019-02-26T14:51:40.312Z,18.30
2019-02-26T14:54:10.206Z,18.30
2019-02-26T14:56:40.248Z,18.30
2019-02-26T14:59:10.212Z,18.30
2019-02-26T15:01:40.429Z,18.30
2019-02-26T15:04:10.383Z,18.30
2019-02-26T15:06:40.234Z,18.30
2019-02-26T15:09:10.136Z,18.30
2019-02-26T15:11:40.550Z,18.20
2019-02-26T15:14:10.407Z,18.20
2019-02-26T15:16:40.246Z,18.10
2019-02-26T15:19:10.174Z,18.10
2019-02-26T15:21:39.991Z,18.00
2019-02-26T15:24:10.037Z,18.00
2019-02-26T15:26:39.966Z,17.90
2019-02-26T15:29:09.822Z,17.80
2019-02-26T15:31:39.750Z,17.80
2019-02-26T15:34:09.565Z,17.70
2019-02-26T15:36:40.094Z,17.70
2019-02-26T15:39:10.127Z,17.60
2019-02-26T15:41:40.106Z,17.50
2019-02-26T15:44:11.855Z,17.50
2019-02-26T15:46:41.712Z,17.40
2019-02-26T15:49:12.254Z,17.40
2019-02-26T15:51:43.780Z,17.30
2019-02-26T15:54:13.722Z,17.30
2019-02-26T15:56:43.558Z,17.30
2019-02-26T15:59:13.496Z,17.20
2019-02-26T16:01:44.013Z,17.20
2019-02-26T16:04:13.890Z,17.10
2019-02-26T16:06:43.781Z,17.10
2019-02-26T16:09:14.825Z,17.00
2019-02-26T16:11:45.693Z,16.90
2019-02-26T16:14:15.712Z,16.90
2019-02-26T16:16:45.672Z,16.80
2019-02-26T16:19:15.468Z,16.70
2019-02-26T16:21:45.315Z,16.60
2019-02-26T16:24:15.125Z,16.60
2019-02-26T16:26:44.985Z,16.50
2019-02-26T16:29:16.551Z,16.40
2019-02-26T16:31:46.342Z,16.30
2019-02-26T16:34:17.492Z,16.20
2019-02-26T16:36:47.713Z,16.10
2019-02-26T16:39:17.602Z,16.00
2019-02-26T16:41:47.504Z,15.90
2019-02-26T16:44:19.085Z,15.80
2019-02-26T16:46:48.905Z,15.70
2019-02-26T16:49:18.960Z,15.60
2019-02-26T16:51:48.775Z,15.50
2019-02-26T16:54:19.029Z,15.40
2019-02-26T16:56:48.860Z,15.30
2019-02-26T16:59:18.682Z,15.20
2019-02-26T17:01:48.838Z,15.00
2019-02-26T17:04:18.743Z,14.90
2019-02-26T17:06:48.756Z,14.80
2019-02-26T17:09:19.009Z,14.70
2019-02-26T17:11:50.085Z,14.60
2019-02-26T17:14:21.805Z,14.50
2019-02-26T17:16:51.687Z,14.40
2019-02-26T17:19:21.522Z,14.30
2019-02-26T17:21:52.010Z,14.20
2019-02-26T17:24:21.896Z,14.10
2019-02-26T17:26:51.771Z,14.00
2019-02-26T17:29:21.590Z,13.90
2019-02-26T17:31:51.555Z,13.70
2019-02-26T17:34:23.441Z,13.60
2019-02-26T17:36:53.857Z,13.40
2019-02-26T17:39:25.728Z,13.20
2019-02-26T17:41:55.179Z,13.00
2019-02-26T17:44:25.144Z,12.80
2019-02-26T17:46:55.000Z,12.70
2019-02-26T17:49:24.826Z,12.50
2019-02-26T17:51:54.842Z,12.40
2019-02-26T17:54:24.693Z,12.20
2019-02-26T17:56:54.781Z,12.00
2019-02-26T17:59:24.669Z,11.90
2019-02-26T18:01:55.528Z,11.80
2019-02-26T18:04:25.342Z,11.70
2019-02-26T18:06:55.219Z,11.60
2019-02-26T18:09:25.069Z,11.50
2019-02-26T18:11:54.882Z,11.30
2019-02-26T18:14:24.882Z,11.30
2019-02-26T18:16:54.754Z,11.20
2019-02-26T18:19:24.862Z,11.10
2019-02-26T18:21:54.657Z,11.00
2019-02-26T18:24:24.470Z,10.80
2019-02-26T18:26:55.004Z,10.80
2019-02-26T18:29:25.655Z,10.70
2019-02-26T18:31:57.174Z,10.60
2019-02-26T18:34:27.220Z,10.50
2019-02-26T18:36:57.193Z,10.40
2019-02-26T18:39:27.020Z,10.30
2019-02-26T18:41:56.960Z,10.20
2019-02-26T18:44:27.073Z,10.10
2019-02-26T18:46:57.041Z,10.10
2019-02-26T18:49:27.022Z,10.00
2019-02-26T18:51:56.905Z,9.90
2019-02-26T18:54:26.735Z,9.80
2019-02-26T18:56:56.538Z,9.70
2019-02-26T18:59:26.470Z,9.70
2019-02-26T19:01:56.222Z,9.60
2019-02-26T19:04:26.026Z,9.50
2019-02-26T19:06:59.492Z,9.50
2019-02-26T19:09:27.854Z,9.40
2019-02-26T19:11:58.389Z,9.40
2019-02-26T19:14:28.241Z,9.30
2019-02-26T19:16:58.753Z,9.30
2019-02-26T19:19:28.538Z,9.20
2019-02-26T19:21:58.995Z,9.20
2019-02-26T19:24:29.036Z,9.10
2019-02-26T19:26:58.989Z,9.10
2019-02-26T19:29:31.536Z,9.00
2019-02-26T19:32:01.413Z,9.00
2019-02-26T19:34:31.753Z,9.00
2019-02-26T19:37:01.858Z,8.90
2019-02-26T19:39:33.823Z,8.90
2019-02-26T19:42:03.404Z,8.80
2019-02-26T19:44:35.732Z,8.80
2019-02-26T19:47:04.812Z,8.80
2019-02-26T19:49:36.847Z,8.80
2019-02-26T19:52:06.458Z,8.70
2019-02-26T19:54:36.537Z,8.70
2019-02-26T19:57:06.694Z,8.60
2019-02-26T19:59:36.562Z,8.60
2019-02-26T20:02:07.079Z,8.60
2019-02-26T20:04:38.663Z,8.50
2019-02-26T20:07:10.092Z,8.50
2019-02-26T20:09:41.568Z,8.50
2019-02-26T20:12:11.462Z,8.40
2019-02-26T20:14:41.248Z,8.40
2019-02-26T20:17:14.842Z,8.40
2019-02-26T20:19:42.647Z,8.40
2019-02-26T20:22:12.498Z,8.40
2019-02-26T20:24:43.273Z,8.40
2019-02-26T20:27:13.029Z,8.40
2019-02-26T20:29:42.806Z,8.40
2019-02-26T20:32:12.701Z,8.40
2019-02-26T20:34:42.675Z,8.40
2019-02-26T20:37:12.425Z,8.40
2019-02-26T20:39:44.149Z,8.40
2019-02-26T20:42:14.781Z,8.50
2019-02-26T20:44:45.479Z,8.50
2019-02-26T20:47:15.405Z,8.50
2019-02-26T20:49:46.330Z,8.50
2019-02-26T20:52:16.709Z,8.40
2019-02-26T20:54:46.723Z,8.40
2019-02-26T20:57:16.582Z,8.40
2019-02-26T20:59:46.396Z,8.40
2019-02-26T21:02:16.281Z,8.30
2019-02-26T21:04:46.222Z,8.30
2019-02-26T21:07:16.043Z,8.30
2019-02-26T21:09:46.145Z,8.20
2019-02-26T21:12:15.998Z,8.20
2019-02-26T21:14:45.802Z,8.10
2019-02-26T21:17:15.595Z,8.10
2019-02-26T21:19:45.450Z,8.00
2019-02-26T21:22:15.271Z,8.00
2019-02-26T21:24:45.121Z,7.90
2019-02-26T21:27:14.933Z,7.80
2019-02-26T21:29:45.612Z,7.80
2019-02-26T21:32:15.427Z,7.70
2019-02-26T21:34:47.605Z,7.70
2019-02-26T21:37:18.769Z,7.60
2019-02-26T21:39:48.649Z,7.60
2019-02-26T21:42:18.546Z,7.60
2019-02-26T21:44:48.350Z,7.50
2019-02-26T21:47:20.204Z,7.50
2019-02-26T21:49:49.784Z,7.50
2019-02-26T21:52:19.750Z,7.50
2019-02-26T21:54:49.606Z,7.50
2019-02-26T21:57:21.520Z,7.50
2019-02-26T21:59:51.725Z,7.50
2019-02-26T22:02:21.520Z,7.40
2019-02-26T22:04:51.308Z,7.40
2019-02-26T22:07:21.076Z,7.40
2019-02-26T22:09:50.886Z,7.40
2019-02-26T22:12:21.812Z,7.40
2019-02-26T22:14:52.361Z,7.30
2019-02-26T22:17:24.998Z,7.30
2019-02-26T22:19:53.926Z,7.30
2019-02-26T22:22:25.974Z,7.20
2019-02-26T22:24:55.232Z,7.20
2019-02-26T22:27:25.075Z,7.10
2019-02-26T22:29:54.881Z,7.00
2019-02-26T22:32:24.806Z,7.00
2019-02-26T22:34:54.620Z,6.90
2019-02-26T22:37:24.667Z,6.90
2019-02-26T22:39:55.836Z,6.80
2019-02-26T22:42:26.533Z,6.70
2019-02-26T22:44:56.548Z,6.70
2019-02-26T22:47:26.469Z,6.60
2019-02-26T22:49:56.268Z,6.60
2019-02-26T22:52:26.123Z,6.50
2019-02-26T22:54:55.942Z,6.40
2019-02-26T22:57:27.603Z,6.40
2019-02-26T22:59:57.397Z,6.30
2019-02-26T23:02:28.040Z,6.20
2019-02-26T23:04:57.810Z,6.20
2019-02-26T23:07:27.641Z,6.10
2019-02-26T23:09:57.716Z,6.10
2019-02-26T23:12:28.196Z,6.00
2019-02-26T23:14:58.910Z,6.00
2019-02-26T23:17:29.032Z,5.90
2019-02-26T23:19:58.890Z,5.90
2019-02-26T23:22:29.269Z,5.80
2019-02-26T23:25:01.025Z,5.80
2019-02-26T23:27:32.787Z,5.70
2019-02-26T23:30:03.753Z,5.70
2019-02-26T23:32:33.725Z,5.60
2019-02-26T23:35:08.709Z,5.60
2019-02-26T23:37:38.440Z,5.50
2019-02-26T23:40:10.583Z,5.50
2019-02-26T23:42:41.472Z,5.50
2019-02-26T23:45:12.376Z,5.40
2019-02-26T23:47:43.015Z,5.40
2019-02-26T23:50:13.234Z,5.40
2019-02-26T23:52:43.301Z,5.40
2019-02-26T23:55:13.981Z,5.30
2019-02-26T23:57:43.975Z,5.30
